createdAt,value
2023-05-05T00:02:02.475Z,4.75
2023-05-05T00:04:28.813Z,4.50
2023-05-05T00:06:55.153Z,4.50
2023-05-05T00:09:21.538Z,4.55
2023-05-05T00:11:47.858Z,5.63
2023-05-05T00:14:14.287Z,5.07
2023-05-05T00:16:40.645Z,5.07
2023-05-05T00:19:07.032Z,5.43
2023-05-05T00:21:33.411Z,5.45
2023-05-05T00:23:59.783Z,5.45
2023-05-05T00:26:26.094Z,4.75
2023-05-05T00:28:52.483Z,5.38
2023-05-05T00:31:18.793Z,4.95
2023-05-05T00:33:45.156Z,5.15
2023-05-05T00:36:11.572Z,4.93
2023-05-05T00:38:37.911Z,5.03
2023-05-05T00:41:04.389Z,5.57
2023-05-05T00:43:30.721Z,5.20
2023-05-05T00:46:02.048Z,6.00
2023-05-05T00:48:30.397Z,6.10
2023-05-05T00:50:56.919Z,5.55
2023-05-05T00:53:23.289Z,5.90
2023-05-05T00:55:49.815Z,5.35
2023-05-05T00:58:16.813Z,5.90
2023-05-05T01:00:43.132Z,5.20
2023-05-05T01:03:09.662Z,6.05
2023-05-05T01:05:55.710Z,5.80
2023-05-05T01:08:37.318Z,5.85
2023-05-05T01:11:17.199Z,6.38
2023-05-05T01:14:14.356Z,6.32
2023-05-05T01:16:50.978Z,6.47
2023-05-05T01:19:35.895Z,6.35
2023-05-05T01:22:06.956Z,6.20
2023-05-05T01:24:55.782Z,6.18
2023-05-05T01:27:47.508Z,6.05
2023-05-05T01:30:29.121Z,6.78
2023-05-05T01:33:03.709Z,5.93
2023-05-05T01:35:37.936Z,6.57
2023-05-05T01:38:21.145Z,5.65
2023-05-05T01:40:57.502Z,6.70
2023-05-05T01:43:27.783Z,6.03
2023-05-05T01:45:55.715Z,6.25
2023-05-05T01:48:23.455Z,6.57
2023-05-05T01:50:52.785Z,6.70
2023-05-05T01:53:22.305Z,6.53
2023-05-05T01:55:50.442Z,6.78
2023-05-05T01:58:17.377Z,6.72
2023-05-05T02:00:44.390Z,6.80
2023-05-05T02:03:13.733Z,7.22
2023-05-05T02:05:41.642Z,7.53
2023-05-05T02:08:09.416Z,7.88
2023-05-05T02:10:37.985Z,7.13
2023-05-05T02:13:04.868Z,7.05
2023-05-05T02:15:31.712Z,7.60
2023-05-05T02:18:00.148Z,6.97
2023-05-05T02:20:28.018Z,7.55
2023-05-05T02:22:54.454Z,6.78
2023-05-05T02:25:21.539Z,6.70
2023-05-05T02:27:49.191Z,7.35
2023-05-05T02:30:19.650Z,7.13
2023-05-05T02:32:51.514Z,6.60
2023-05-05T02:35:22.364Z,7.25
2023-05-05T02:37:56.088Z,8.77
2023-05-05T02:40:26.226Z,8.25
2023-05-05T02:42:55.807Z,7.97
2023-05-05T02:45:24.751Z,8.15
2023-05-05T02:47:51.069Z,8.43
2023-05-05T02:50:17.896Z,8.00
2023-05-05T02:52:45.668Z,8.23
2023-05-05T02:55:12.863Z,8.23
2023-05-05T02:58:07.868Z,7.93
2023-05-05T03:00:41.187Z,8.65
2023-05-05T03:03:37.139Z,8.55
2023-05-05T03:06:19.569Z,8.88
2023-05-05T03:09:13.885Z,8.55
2023-05-05T03:11:54.993Z,9.30
2023-05-05T03:14:22.107Z,9.32
2023-05-05T03:16:49.317Z,9.77
2023-05-05T03:19:20.185Z,9.38
2023-05-05T03:21:47.581Z,9.35
2023-05-05T03:24:13.908Z,8.25
2023-05-05T03:26:40.279Z,8.75
2023-05-05T03:29:06.743Z,8.27
2023-05-05T03:31:33.360Z,7.95
2023-05-05T03:33:59.717Z,8.15
2023-05-05T03:36:27.859Z,7.53
2023-05-05T03:38:55.598Z,8.10
2023-05-05T03:41:22.797Z,8.75
2023-05-05T03:43:49.405Z,8.90
2023-05-05T03:46:15.979Z,8.88
2023-05-05T03:48:42.958Z,9.20
2023-05-05T03:51:09.378Z,8.80
2023-05-05T03:53:35.905Z,8.57
2023-05-05T03:56:02.253Z,7.90
2023-05-05T03:58:28.579Z,8.82
2023-05-05T04:00:54.930Z,8.93
2023-05-05T04:03:21.375Z,8.63
2023-05-05T04:05:47.964Z,8.80
2023-05-05T04:08:14.309Z,8.23
2023-05-05T04:10:40.677Z,8.25
2023-05-05T04:13:06.985Z,9.18
2023-05-05T04:15:33.355Z,8.75
2023-05-05T04:17:59.786Z,8.60
2023-05-05T04:20:26.250Z,7.55
2023-05-05T04:22:52.825Z,8.93
2023-05-05T04:25:19.236Z,8.38
2023-05-05T04:27:45.594Z,8.82
2023-05-05T04:30:12.947Z,8.07
2023-05-05T04:32:39.275Z,9.68
2023-05-05T04:35:06.061Z,9.80
2023-05-05T04:37:32.388Z,8.80
2023-05-05T04:39:58.765Z,9.93
2023-05-05T04:42:25.113Z,9.07
2023-05-05T04:44:51.463Z,9.40
2023-05-05T04:47:17.780Z,9.13
2023-05-05T04:49:44.118Z,8.90
2023-05-05T04:52:12.327Z,9.02
2023-05-05T04:54:38.724Z,9.27
2023-05-05T04:57:05.144Z,10.00
2023-05-05T04:59:31.446Z,8.70
2023-05-05T05:01:57.826Z,8.68
2023-05-05T05:04:25.286Z,8.50
2023-05-05T05:06:51.631Z,9.00
2023-05-05T05:09:18.023Z,8.82
2023-05-05T05:11:44.413Z,9.55
2023-05-05T05:14:10.783Z,8.65
2023-05-05T05:16:37.822Z,8.57
2023-05-05T05:19:04.228Z,8.27
2023-05-05T05:21:30.546Z,8.65
2023-05-05T05:23:57.031Z,7.93
2023-05-05T05:26:23.396Z,8.38
2023-05-05T05:28:49.687Z,7.35
2023-05-05T05:31:16.053Z,7.28
2023-05-05T05:33:42.345Z,6.72
2023-05-05T05:36:08.862Z,7.13
2023-05-05T05:38:35.207Z,6.50
2023-05-05T05:41:05.479Z,5.85
2023-05-05T05:43:31.825Z,6.13
2023-05-05T05:45:58.486Z,5.75
2023-05-05T05:48:24.898Z,5.85
2023-05-05T05:50:51.253Z,5.75
2023-05-05T05:53:17.695Z,5.88
2023-05-05T05:55:46.150Z,5.68
2023-05-05T05:58:12.523Z,5.50
2023-05-05T06:00:38.826Z,5.18
2023-05-05T06:03:05.306Z,5.43
2023-05-05T06:05:32.280Z,5.63
2023-05-05T06:07:58.604Z,5.78
2023-05-05T06:10:27.373Z,5.55
2023-05-05T06:12:54.805Z,5.55
2023-05-05T06:15:21.158Z,5.30
2023-05-05T06:17:47.502Z,4.72
2023-05-05T06:20:13.918Z,5.10
2023-05-05T06:22:40.261Z,5.28
2023-05-05T06:25:07.056Z,5.15
2023-05-05T06:27:33.412Z,5.20
2023-05-05T06:29:59.730Z,5.35
2023-05-05T06:32:26.162Z,5.00
2023-05-05T06:34:52.476Z,4.72
2023-05-05T06:37:18.784Z,4.38
2023-05-05T06:39:45.129Z,4.97
2023-05-05T06:42:11.460Z,4.50
2023-05-05T06:44:37.778Z,4.63
2023-05-05T06:47:04.191Z,4.30
2023-05-05T06:49:30.565Z,4.05
2023-05-05T06:51:56.906Z,3.58
2023-05-05T06:54:23.354Z,3.67
2023-05-05T06:56:49.675Z,4.25
2023-05-05T06:59:16.023Z,3.70
2023-05-05T07:01:42.373Z,3.50
2023-05-05T07:04:08.716Z,3.75
2023-05-05T07:06:35.127Z,2.70
2023-05-05T07:09:01.475Z,2.88
2023-05-05T07:11:27.792Z,3.33
2023-05-05T07:13:54.136Z,2.63
2023-05-05T07:16:20.520Z,3.10
2023-05-05T07:18:46.895Z,2.78
2023-05-05T07:21:13.234Z,2.80
2023-05-05T07:23:39.568Z,2.58
2023-05-05T07:26:06.041Z,2.70
2023-05-05T07:28:32.354Z,2.58
2023-05-05T07:30:58.648Z,2.50
2023-05-05T07:33:24.954Z,2.55
2023-05-05T07:35:51.347Z,2.40
2023-05-05T07:38:17.658Z,2.05
2023-05-05T07:40:44.038Z,1.80
2023-05-05T07:43:10.372Z,1.90
2023-05-05T07:45:36.737Z,2.00
2023-05-05T07:48:03.317Z,1.80
2023-05-05T07:50:29.680Z,1.80
2023-05-05T07:53:02.452Z,1.85
2023-05-05T07:55:39.788Z,1.80
2023-05-05T07:58:06.104Z,1.80
2023-05-05T08:00:32.484Z,1.50
2023-05-05T08:02:58.893Z,1.40
2023-05-05T08:05:25.233Z,1.30
2023-05-05T08:07:51.573Z,1.60
2023-05-05T08:10:17.956Z,1.17
2023-05-05T08:12:44.350Z,1.25
2023-05-05T08:15:11.205Z,1.23
2023-05-05T08:17:48.176Z,1.20
2023-05-05T08:20:15.941Z,0.98
2023-05-05T08:22:42.597Z,1.10
2023-05-05T08:25:09.838Z,0.90
2023-05-05T08:27:37.681Z,1.10
2023-05-05T08:30:04.868Z,1.20
2023-05-05T08:32:31.908Z,0.93
2023-05-05T08:34:58.243Z,0.90
2023-05-05T08:37:24.547Z,1.10
2023-05-05T08:39:50.837Z,1.10
2023-05-05T08:42:29.077Z,1.00
2023-05-05T08:45:02.363Z,1.42
2023-05-05T08:47:28.839Z,1.00
2023-05-05T08:49:56.734Z,1.00
2023-05-05T08:52:24.351Z,1.10
2023-05-05T08:54:55.231Z,1.10
2023-05-05T08:57:32.375Z,1.17
2023-05-05T09:00:00.483Z,1.40
2023-05-05T09:02:29.293Z,1.40
2023-05-05T09:04:56.218Z,1.20
2023-05-05T09:07:23.013Z,1.30
2023-05-05T09:09:49.881Z,1.30
2023-05-05T09:12:16.225Z,1.50
2023-05-05T09:14:42.608Z,1.30
2023-05-05T09:17:25.564Z,1.40
2023-05-05T09:20:06.780Z,1.40
2023-05-05T09:22:35.726Z,1.17
2023-05-05T09:25:02.354Z,1.20
2023-05-05T09:27:28.722Z,1.20
2023-05-05T09:29:55.389Z,1.17
2023-05-05T09:32:22.394Z,1.25
2023-05-05T09:35:01.351Z,1.40
2023-05-05T09:37:31.372Z,1.27
2023-05-05T09:39:59.813Z,1.10
2023-05-05T09:42:26.777Z,1.20
2023-05-05T09:44:53.749Z,1.15
2023-05-05T09:47:29.427Z,1.20
2023-05-05T09:49:57.623Z,1.30
2023-05-05T09:52:24.342Z,1.15
2023-05-05T09:54:55.344Z,1.20
2023-05-05T09:57:28.778Z,1.17
2023-05-05T09:59:56.715Z,1.25
2023-05-05T10:02:30.804Z,1.13
2023-05-05T10:05:04.513Z,1.20
2023-05-05T10:07:30.864Z,1.40
2023-05-05T10:09:57.200Z,1.50
2023-05-05T10:12:26.220Z,1.17
2023-05-05T10:14:55.292Z,1.20
2023-05-05T10:17:25.632Z,1.27
2023-05-05T10:19:56.878Z,1.60
2023-05-05T10:22:24.976Z,1.20
2023-05-05T10:24:57.576Z,1.40
2023-05-05T10:27:26.802Z,1.30
2023-05-05T10:30:07.776Z,1.20
2023-05-05T10:33:18.234Z,1.20
2023-05-05T10:35:52.042Z,1.30
2023-05-05T10:38:20.640Z,1.40
2023-05-05T10:40:48.005Z,1.40
2023-05-05T10:43:14.915Z,1.42
2023-05-05T10:45:42.552Z,1.30
2023-05-05T10:48:32.279Z,1.50
2023-05-05T10:51:38.633Z,1.40
2023-05-05T10:54:16.976Z,1.35
2023-05-05T10:56:43.567Z,1.42
2023-05-05T10:59:38.342Z,1.63
2023-05-05T11:02:24.941Z,1.50
2023-05-05T11:05:13.531Z,1.10
2023-05-05T11:07:39.968Z,1.27
2023-05-05T11:10:12.119Z,1.27
2023-05-05T11:12:53.970Z,1.70
2023-05-05T11:15:26.225Z,1.30
2023-05-05T11:18:00.334Z,1.35
2023-05-05T11:20:35.856Z,1.48
2023-05-05T11:23:02.241Z,1.50
2023-05-05T11:25:34.638Z,1.55
2023-05-05T11:28:21.469Z,1.33
2023-05-05T11:30:57.858Z,1.17
2023-05-05T11:33:34.961Z,0.68
2023-05-05T11:36:09.144Z,0.70
2023-05-05T11:38:44.469Z,0.63
2023-05-05T11:41:32.014Z,0.50
2023-05-05T11:44:11.548Z,0.47
2023-05-05T11:46:40.983Z,0.50
2023-05-05T11:49:07.734Z,0.68
2023-05-05T11:51:34.229Z,0.90
2023-05-05T11:54:00.664Z,0.80
2023-05-05T11:56:26.973Z,0.80
2023-05-05T11:59:10.570Z,0.85
2023-05-05T12:01:40.726Z,0.90
2023-05-05T12:04:11.298Z,1.08
2023-05-05T12:06:38.005Z,0.88
2023-05-05T12:09:04.428Z,0.90
2023-05-05T12:11:30.781Z,1.00
2023-05-05T12:14:10.290Z,0.80
2023-05-05T12:16:36.920Z,1.10
2023-05-05T12:19:04.929Z,1.00
2023-05-05T12:21:31.862Z,1.02
2023-05-05T12:23:59.289Z,1.05
2023-05-05T12:26:31.187Z,1.30
2023-05-05T12:28:59.033Z,1.00
2023-05-05T12:31:41.980Z,1.23
2023-05-05T12:34:10.092Z,1.17
2023-05-05T12:36:36.998Z,1.10
2023-05-05T12:39:06.516Z,1.15
2023-05-05T12:41:33.844Z,1.10
2023-05-05T12:44:01.755Z,1.10
2023-05-05T12:46:28.600Z,1.00
2023-05-05T12:49:05.524Z,1.23
2023-05-05T12:51:33.577Z,1.20
2023-05-05T12:54:08.506Z,1.50
2023-05-05T12:56:34.811Z,1.20
2023-05-05T12:59:12.476Z,1.30
2023-05-05T13:01:48.612Z,1.40
2023-05-05T13:04:15.087Z,1.45
2023-05-05T13:06:43.535Z,1.30
2023-05-05T13:09:22.542Z,1.50
2023-05-05T13:11:48.848Z,1.50
2023-05-05T13:14:15.186Z,1.70
2023-05-05T13:16:41.573Z,1.80
2023-05-05T13:19:07.882Z,1.60
2023-05-05T13:21:34.237Z,1.42
2023-05-05T13:24:12.483Z,1.83
2023-05-05T13:26:47.580Z,1.58
2023-05-05T13:29:13.986Z,1.90
2023-05-05T13:31:40.388Z,1.70
2023-05-05T13:34:06.720Z,1.65
2023-05-05T13:36:33.072Z,1.80
2023-05-05T13:38:59.436Z,1.95
2023-05-05T13:41:25.902Z,1.80
2023-05-05T13:43:52.261Z,1.85
2023-05-05T13:46:20.367Z,1.70
2023-05-05T13:48:46.840Z,1.90
2023-05-05T13:51:13.167Z,2.20
2023-05-05T13:53:39.510Z,1.90
2023-05-05T13:56:05.988Z,2.13
2023-05-05T13:58:32.311Z,2.05
2023-05-05T14:00:58.709Z,1.92
2023-05-05T14:03:25.146Z,1.88
2023-05-05T14:05:51.506Z,2.00
2023-05-05T14:08:17.885Z,2.10
2023-05-05T14:10:45.423Z,2.35
2023-05-05T14:13:13.625Z,2.60
2023-05-05T14:15:40.045Z,2.72
2023-05-05T14:18:06.565Z,2.75
2023-05-05T14:20:33.087Z,2.35
2023-05-05T14:22:59.560Z,2.80
2023-05-05T14:25:26.004Z,2.72
2023-05-05T14:27:54.842Z,2.70
2023-05-05T14:30:21.226Z,2.65
2023-05-05T14:32:47.557Z,2.47
2023-05-05T14:35:13.945Z,2.70
2023-05-05T14:37:40.254Z,2.58
2023-05-05T14:40:07.373Z,2.90
2023-05-05T14:42:33.814Z,3.15
2023-05-05T14:45:00.185Z,2.72
2023-05-05T14:47:26.495Z,3.33
2023-05-05T14:49:52.798Z,3.08
2023-05-05T14:52:19.090Z,2.72
2023-05-05T14:54:45.445Z,2.83
2023-05-05T14:57:11.918Z,3.15
2023-05-05T14:59:38.252Z,2.80
2023-05-05T15:02:04.672Z,2.65
2023-05-05T15:04:31.080Z,2.33
2023-05-05T15:06:57.404Z,2.55
2023-05-05T15:09:23.715Z,2.05
2023-05-05T15:11:50.103Z,2.20
2023-05-05T15:14:16.404Z,2.17
2023-05-05T15:16:42.753Z,1.90
2023-05-05T15:19:09.127Z,1.70
2023-05-05T15:21:35.481Z,1.50
2023-05-05T15:24:01.802Z,1.35
2023-05-05T15:26:28.164Z,1.70
2023-05-05T15:28:54.476Z,1.77
2023-05-05T15:31:20.822Z,1.50
2023-05-05T15:33:47.145Z,1.38
2023-05-05T15:36:13.554Z,1.20
2023-05-05T15:38:41.434Z,1.30
2023-05-05T15:41:07.765Z,1.30
2023-05-05T15:43:34.545Z,1.52
2023-05-05T15:46:00.847Z,1.50
2023-05-05T15:48:27.302Z,1.60
2023-05-05T15:50:53.647Z,1.63
2023-05-05T15:53:20.035Z,1.42
2023-05-05T15:55:46.338Z,1.58
2023-05-05T15:58:12.735Z,1.50
2023-05-05T16:00:39.345Z,1.23
2023-05-05T16:03:05.751Z,1.60
2023-05-05T16:05:32.263Z,1.52
2023-05-05T16:07:58.605Z,1.40
2023-05-05T16:10:24.944Z,1.70
2023-05-05T16:12:51.262Z,1.50
2023-05-05T16:15:17.780Z,1.70
2023-05-05T16:17:44.198Z,1.38
2023-05-05T16:20:11.232Z,1.30
2023-05-05T16:22:37.632Z,1.35
2023-05-05T16:25:04.375Z,1.20
2023-05-05T16:27:30.707Z,1.50
2023-05-05T16:29:59.560Z,1.27
2023-05-05T16:32:26.207Z,1.27
2023-05-05T16:34:52.610Z,1.00
2023-05-05T16:37:18.943Z,1.20
2023-05-05T16:39:45.300Z,1.00
2023-05-05T16:42:11.623Z,1.00
2023-05-05T16:44:38.257Z,1.00
2023-05-05T16:47:04.614Z,0.93
2023-05-05T16:49:31.044Z,1.08
2023-05-05T16:51:57.440Z,1.17
2023-05-05T16:54:23.796Z,0.90
2023-05-05T16:56:50.127Z,0.80
2023-05-05T16:59:16.474Z,1.10
2023-05-05T17:01:42.843Z,1.00
2023-05-05T17:04:09.188Z,1.10
2023-05-05T17:06:35.510Z,0.90
2023-05-05T17:09:01.976Z,1.02
2023-05-05T17:11:28.297Z,1.00
2023-05-05T17:13:54.700Z,1.33
2023-05-05T17:16:21.022Z,0.93
2023-05-05T17:18:47.433Z,1.10
2023-05-05T17:21:13.779Z,1.20
2023-05-05T17:23:40.082Z,0.93
2023-05-05T17:26:06.416Z,1.33
2023-05-05T17:28:32.771Z,0.80
2023-05-05T17:30:59.086Z,1.00
2023-05-05T17:33:25.644Z,1.20
2023-05-05T17:35:51.981Z,1.00
2023-05-05T17:38:18.352Z,0.80
2023-05-05T17:40:44.817Z,0.90
2023-05-05T17:43:11.130Z,1.15
2023-05-05T17:45:37.503Z,0.95
2023-05-05T17:48:04.206Z,1.00
2023-05-05T17:50:30.611Z,1.20
2023-05-05T17:52:56.918Z,1.00
2023-05-05T17:55:23.222Z,1.10
2023-05-05T17:57:49.552Z,1.05
2023-05-05T18:00:16.253Z,0.98
2023-05-05T18:02:42.764Z,1.10
2023-05-05T18:05:09.671Z,1.05
2023-05-05T18:07:36.189Z,1.10
2023-05-05T18:10:02.506Z,1.20
2023-05-05T18:12:28.840Z,1.17
2023-05-05T18:14:55.245Z,1.25
2023-05-05T18:17:21.617Z,1.05
2023-05-05T18:19:49.262Z,0.90
2023-05-05T18:22:15.732Z,1.00
2023-05-05T18:24:42.052Z,1.00
2023-05-05T18:27:08.470Z,0.90
2023-05-05T18:29:35.595Z,1.10
2023-05-05T18:32:02.121Z,0.90
2023-05-05T18:34:28.495Z,1.05
2023-05-05T18:36:54.929Z,1.00
2023-05-05T18:39:21.263Z,1.00
2023-05-05T18:41:47.612Z,1.00
2023-05-05T18:44:13.981Z,1.10
2023-05-05T18:46:40.503Z,1.13
2023-05-05T18:49:06.883Z,1.20
2023-05-05T18:51:33.277Z,1.13
2023-05-05T18:53:59.969Z,1.30
2023-05-05T18:56:26.878Z,1.27
2023-05-05T18:58:53.237Z,1.20
2023-05-05T19:01:19.634Z,1.10
2023-05-05T19:03:46.978Z,1.15
2023-05-05T19:06:13.743Z,1.23
2023-05-05T19:08:40.181Z,1.10
2023-05-05T19:11:06.508Z,1.02
2023-05-05T19:13:32.810Z,1.20
2023-05-05T19:15:59.283Z,1.27
2023-05-05T19:18:25.632Z,1.00
2023-05-05T19:20:52.151Z,1.10
2023-05-05T19:23:18.609Z,0.98
2023-05-05T19:25:44.989Z,1.00
2023-05-05T19:28:11.368Z,1.20
2023-05-05T19:30:37.814Z,1.35
2023-05-05T19:33:04.292Z,1.38
2023-05-05T19:35:30.779Z,1.38
2023-05-05T19:37:57.120Z,2.00
2023-05-05T19:40:23.526Z,1.23
2023-05-05T19:42:49.881Z,1.40
2023-05-05T19:45:16.315Z,1.63
2023-05-05T19:47:42.649Z,1.40
2023-05-05T19:50:09.957Z,1.20
2023-05-05T19:52:36.519Z,1.50
2023-05-05T19:55:02.976Z,1.48
2023-05-05T19:57:29.372Z,1.30
2023-05-05T19:59:55.688Z,1.10
2023-05-05T20:02:22.094Z,1.38
2023-05-05T20:04:48.486Z,1.40
2023-05-05T20:07:14.787Z,1.58
2023-05-05T20:09:41.115Z,1.48
2023-05-05T20:12:07.757Z,1.70
2023-05-05T20:14:34.120Z,1.40
2023-05-05T20:17:00.475Z,1.58
2023-05-05T20:19:26.843Z,1.48
2023-05-05T20:21:53.172Z,1.45
2023-05-05T20:24:19.589Z,1.30
2023-05-05T20:26:45.897Z,1.67
2023-05-05T20:29:12.219Z,1.55
2023-05-05T20:31:38.614Z,2.92
2023-05-05T20:34:04.960Z,2.65
2023-05-05T20:36:31.319Z,2.20
2023-05-05T20:38:57.684Z,2.67
2023-05-05T20:41:24.044Z,1.60
2023-05-05T20:43:50.359Z,1.58
2023-05-05T20:46:16.741Z,2.75
2023-05-05T20:48:43.271Z,2.10
2023-05-05T20:51:09.677Z,1.77
2023-05-05T20:53:36.054Z,2.08
2023-05-05T20:56:02.380Z,2.20
2023-05-05T20:58:29.759Z,1.70
2023-05-05T21:00:56.124Z,1.70
2023-05-05T21:03:22.523Z,1.58
2023-05-05T21:05:48.895Z,1.70
2023-05-05T21:08:15.442Z,2.20
2023-05-05T21:10:41.802Z,2.28
2023-05-05T21:13:08.118Z,1.83
2023-05-05T21:15:36.947Z,1.60
2023-05-05T21:18:03.728Z,1.23
2023-05-05T21:20:30.054Z,1.63
2023-05-05T21:22:56.570Z,2.00
2023-05-05T21:25:23.295Z,2.88
2023-05-05T21:27:49.614Z,2.95
2023-05-05T21:30:17.152Z,2.90
2023-05-05T21:32:44.099Z,3.05
2023-05-05T21:35:10.539Z,2.72
2023-05-05T21:37:37.993Z,3.08
2023-05-05T21:40:06.067Z,3.33
2023-05-05T21:42:32.469Z,3.65
2023-05-05T21:44:58.781Z,3.95
2023-05-05T21:47:25.157Z,4.32
2023-05-05T21:49:51.568Z,4.35
2023-05-05T21:52:17.940Z,3.22
2023-05-05T21:54:44.634Z,2.50
2023-05-05T21:57:10.965Z,2.47
2023-05-05T21:59:37.360Z,2.50
2023-05-05T22:02:03.737Z,2.92
2023-05-05T22:04:30.117Z,2.70
2023-05-05T22:06:56.585Z,2.75
2023-05-05T22:09:22.911Z,2.15
2023-05-05T22:11:49.330Z,2.30
2023-05-05T22:14:15.664Z,3.08
2023-05-05T22:16:42.526Z,3.88
2023-05-05T22:19:09.008Z,4.80
2023-05-05T22:21:35.375Z,4.53
2023-05-05T22:24:01.721Z,4.00
2023-05-05T22:26:28.043Z,3.80
2023-05-05T22:28:54.345Z,4.20
2023-05-05T22:31:20.692Z,4.60
2023-05-05T22:33:47.044Z,4.85
2023-05-05T22:36:13.380Z,4.93
2023-05-05T22:38:39.724Z,5.50
2023-05-05T22:41:06.613Z,5.47
2023-05-05T22:43:32.942Z,5.50
2023-05-05T22:45:59.247Z,4.57
2023-05-05T22:48:25.580Z,5.60
2023-05-05T22:50:51.883Z,5.20
2023-05-05T22:53:18.218Z,5.18
2023-05-05T22:55:44.524Z,4.72
2023-05-05T22:58:10.863Z,4.93
2023-05-05T23:00:37.270Z,4.75
2023-05-05T23:03:04.006Z,5.05
2023-05-05T23:05:30.358Z,4.15
2023-05-05T23:07:56.643Z,4.70
2023-05-05T23:10:22.997Z,4.88
2023-05-05T23:12:49.446Z,4.60
2023-05-05T23:15:15.854Z,4.80
2023-05-05T23:17:42.223Z,4.28
2023-05-05T23:20:09.192Z,5.05
2023-05-05T23:22:35.530Z,5.80
2023-05-05T23:25:01.813Z,5.68
2023-05-05T23:27:28.135Z,4.43
2023-05-05T23:29:54.491Z,4.82
2023-05-05T23:32:20.842Z,4.95
2023-05-05T23:34:47.254Z,5.50
2023-05-05T23:37:13.852Z,5.03
2023-05-05T23:39:40.679Z,6.00
2023-05-05T23:42:07.025Z,6.82
2023-05-05T23:44:33.367Z,7.15
2023-05-05T23:46:59.730Z,6.85
2023-05-05T23:49:26.049Z,5.57
2023-05-05T23:51:52.725Z,8.30
2023-05-05T23:54:19.036Z,8.48
2023-05-05T23:56:45.772Z,9.02
2023-05-05T23:59:12.138Z,8.18
